Time;durP1;ratioP1;P1;durP2;ratioP2;P2;SDS_P1;SDS_P2;PMS_P1;PMS_P2;Temp;Humidity;BMP_temperature;BMP_pressure;BME280_temperature;BME280_humidity;BME280_pressure;Samples;Min_cycle;Max_cycle;Signal;HPM_P1;HPM_P2
2022/08/12 00:43:35;;;;;;;;;;;28.70;77.20;;;;;;5036937;28;19929;-56
2022/08/12 00:48:48;;;;;;;;;;;28.80;77.30;;;;;;5033367;28;19935;-61
2022/08/12 00:51:16;;;;;;;;;;;28.70;77.30;;;;;;5030349;28;19936;-58
2022/08/12 00:53:43;;;;;;;;;;;28.70;77.20;;;;;;5019656;28;19951;-56
2022/08/12 00:56:10;;;;;;;;;;;28.70;77.20;;;;;;5038654;28;19945;-57
2022/08/12 00:58:38;;;;;;;;;;;28.70;77.20;;;;;;5040744;28;19935;-54
2022/08/12 01:01:07;;;;;;;;;;;28.70;77.30;;;;;;5038698;28;20400;-52
2022/08/12 01:12:08;;;;;;;;;;;28.70;77.40;;;;;;5029723;28;19929;-54
2022/08/12 01:14:36;;;;;;;;;;;28.60;77.30;;;;;;5012939;28;19940;-51
2022/08/12 01:17:03;;;;;;;;;;;28.60;77.30;;;;;;5029184;28;19936;-57
2022/08/12 01:19:30;;;;;;;;;;;28.60;77.40;;;;;;5030853;28;19940;-58
2022/08/12 01:22:16;;;;;;;;;;;28.60;77.40;;;;;;5043019;28;19935;-56
2022/08/12 01:25:11;;;;;;;;;;;28.60;77.40;;;;;;5031166;28;20229;-56
2022/08/12 01:27:39;;;;;;;;;;;28.60;77.40;;;;;;5025395;28;19929;-53
2022/08/12 01:30:08;;;;;;;;;;;28.60;77.40;;;;;;5035800;28;19936;-58
2022/08/12 01:32:37;;;;;;;;;;;28.60;77.30;;;;;;5028131;28;19933;-53
2022/08/12 01:35:07;;;;;;;;;;;28.70;77.40;;;;;;5034484;28;19937;-56
2022/08/12 01:37:41;;;;;;;;;;;28.60;77.30;;;;;;5030022;28;20320;-58
2022/08/12 01:40:09;;;;;;;;;;;28.60;77.30;;;;;;5018618;28;19929;-54
2022/08/12 01:42:58;;;;;;;;;;;28.60;77.40;;;;;;5036903;28;19929;-58
2022/08/12 01:45:28;;;;;;;;;;;28.60;77.40;;;;;;5038590;28;19937;-61
2022/08/12 01:48:16;;;;;;;;;;;28.60;77.50;;;;;;5033710;28;19929;-55
2022/08/12 01:50:52;;;;;;;;;;;28.60;77.40;;;;;;5037641;28;19933;-59
2022/08/12 01:53:31;;;;;;;;;;;28.60;77.40;;;;;;5037082;28;19929;-59
2022/08/12 01:56:17;;;;;;;;;;;28.60;77.40;;;;;;5035379;28;20116;-56
2022/08/12 02:01:33;;;;;;;;;;;28.50;77.30;;;;;;5036113;28;20000;-52
2022/08/12 02:12:53;;;;;;;;;;;28.60;77.50;;;;;;5035476;28;19925;-53
2022/08/12 02:15:30;;;;;;;;;;;28.60;77.50;;;;;;5039891;28;19933;-57
2022/08/12 02:18:00;;;;;;;;;;;28.50;77.40;;;;;;5028774;28;19929;-53
2022/08/12 02:20:45;;;;;;;;;;;28.50;77.40;;;;;;5040313;28;19940;-53
2022/08/12 02:23:25;;;;;;;;;;;28.50;77.40;;;;;;5037548;28;19929;-53
2022/08/12 02:26:02;;;;;;;;;;;28.50;77.40;;;;;;5033238;28;20764;-51
2022/08/12 02:28:30;;;;;;;;;;;28.50;77.40;;;;;;5035888;28;19933;-55
2022/08/12 02:31:01;;;;;;;;;;;28.50;77.40;;;;;;5027715;28;20396;-58
2022/08/12 02:33:29;;;;;;;;;;;28.50;77.40;;;;;;5034894;28;19925;-56
2022/08/12 02:35:56;;;;;;;;;;;28.50;77.40;;;;;;5031947;28;19936;-57
2022/08/12 02:38:24;;;;;;;;;;;28.50;77.50;;;;;;5041853;28;19936;-58
2022/08/12 02:40:53;;;;;;;;;;;28.50;77.40;;;;;;5034375;28;19929;-57
2022/08/12 02:43:26;;;;;;;;;;;28.50;77.40;;;;;;5038148;28;20298;-57
2022/08/12 02:46:03;;;;;;;;;;;28.50;77.40;;;;;;5033049;28;19929;-56
2022/08/12 02:48:36;;;;;;;;;;;28.50;77.40;;;;;;5037618;28;19936;-52
2022/08/12 02:51:05;;;;;;;;;;;28.50;78.10;;;;;;5030257;28;20332;-54
2022/08/12 02:53:34;;;;;;;;;;;28.50;77.40;;;;;;5030276;28;19929;-56
2022/08/12 02:56:02;;;;;;;;;;;28.50;77.50;;;;;;5034341;28;19925;-58
2022/08/12 02:58:30;;;;;;;;;;;28.40;77.50;;;;;;5035264;28;19929;-56
2022/08/12 03:01:00;;;;;;;;;;;28.40;77.40;;;;;;5029066;28;19936;-56
2022/08/12 03:03:32;;;;;;;;;;;28.50;77.50;;;;;;5036788;28;19976;-54
2022/08/12 03:06:01;;;;;;;;;;;28.40;77.50;;;;;;5035895;28;20400;-53
2022/08/12 03:08:30;;;;;;;;;;;28.50;77.50;;;;;;5028016;28;19929;-54
2022/08/12 03:11:16;;;;;;;;;;;28.40;77.50;;;;;;5034308;28;19940;-52
2022/08/12 03:13:50;;;;;;;;;;;28.40;77.50;;;;;;5027879;28;19929;-51
2022/08/12 03:16:19;;;;;;;;;;;28.40;77.50;;;;;;5037904;28;19929;-58
2022/08/12 03:18:47;;;;;;;;;;;28.40;77.50;;;;;;5030830;28;19936;-59
2022/08/12 03:21:15;;;;;;;;;;;28.40;77.60;;;;;;5028050;28;19929;-57
2022/08/12 03:23:44;;;;;;;;;;;28.40;77.50;;;;;;5026572;28;20312;-58
2022/08/12 03:26:12;;;;;;;;;;;28.40;77.50;;;;;;5034589;28;19936;-56
2022/08/12 03:28:56;;;;;;;;;;;28.40;77.60;;;;;;5035664;28;19933;-56
2022/08/12 03:31:28;;;;;;;;;;;28.40;77.60;;;;;;5031210;28;19929;-57
2022/08/12 03:33:59;;;;;;;;;;;28.40;77.60;;;;;;5035059;28;20034;-58
2022/08/12 03:36:32;;;;;;;;;;;28.40;77.60;;;;;;5034637;28;19944;-59
2022/08/12 03:41:57;;;;;;;;;;;28.40;77.60;;;;;;5029201;28;19929;-59
2022/08/12 04:01:15;;;;;;;;;;;28.40;77.70;;;;;;5032938;28;19929;-58
2022/08/12 04:03:51;;;;;;;;;;;28.30;77.60;;;;;;5029957;28;19936;-53
2022/08/12 04:06:23;;;;;;;;;;;28.30;77.70;;;;;;5037040;28;19936;-55
2022/08/12 04:09:04;;;;;;;;;;;28.30;77.60;;;;;;5034563;28;19930;-56
2022/08/12 04:14:30;;;;;;;;;;;28.30;77.70;;;;;;5031808;28;20323;-57
2022/08/12 04:16:57;;;;;;;;;;;28.30;77.70;;;;;;5030161;28;19940;-57
2022/08/12 04:19:25;;;;;;;;;;;28.30;77.70;;;;;;5038786;28;20415;-52
2022/08/12 04:21:54;;;;;;;;;;;28.30;77.70;;;;;;5034882;28;19948;-59
2022/08/12 04:24:30;;;;;;;;;;;28.20;77.60;;;;;;5026259;28;20397;-51
2022/08/12 04:26:58;;;;;;;;;;;28.30;77.70;;;;;;5035752;28;20416;-55
2022/08/12 04:29:25;;;;;;;;;;;28.30;77.70;;;;;;5035784;28;19928;-56
2022/08/12 04:32:12;;;;;;;;;;;28.20;77.70;;;;;;5035469;28;19936;-58
2022/08/12 04:34:40;;;;;;;;;;;28.30;77.70;;;;;;5056376;22;19929;-59
2022/08/12 04:37:07;;;;;;;;;;;28.30;77.70;;;;;;5035876;28;19929;-60
2022/08/12 04:39:36;;;;;;;;;;;28.20;77.70;;;;;;5033558;28;19951;-61
2022/08/12 04:42:04;;;;;;;;;;;28.20;77.70;;;;;;5046862;28;20331;-63
2022/08/12 04:44:31;;;;;;;;;;;28.20;77.70;;;;;;5033741;28;19936;-61
2022/08/12 04:46:58;;;;;;;;;;;28.20;77.70;;;;;;5030041;28;19936;-61
2022/08/12 04:49:26;;;;;;;;;;;28.30;77.80;;;;;;5037381;28;20169;-60
2022/08/12 04:51:54;;;;;;;;;;;28.20;77.70;;;;;;5039500;28;19925;-61
2022/08/12 04:54:26;;;;;;;;;;;28.20;77.70;;;;;;5036760;28;19933;-59
2022/08/12 04:56:53;;;;;;;;;;;28.20;77.70;;;;;;5040900;28;19929;-57
2022/08/12 04:59:31;;;;;;;;;;;28.20;77.70;;;;;;5041538;28;20372;-60
2022/08/12 05:02:18;;;;;;;;;;;28.20;77.70;;;;;;5031820;28;19932;-64
2022/08/12 05:04:49;;;;;;;;;;;28.20;77.70;;;;;;5038164;28;19936;-59
2022/08/12 05:07:16;;;;;;;;;;;28.20;77.70;;;;;;5035416;28;19929;-58
2022/08/12 05:09:44;;;;;;;;;;;28.20;77.70;;;;;;5035524;28;19929;-58
2022/08/12 05:12:35;;;;;;;;;;;28.20;77.70;;;;;;5041757;28;19940;-62
2022/08/12 05:15:05;;;;;;;;;;;28.20;77.70;;;;;;5051621;28;19935;-61
2022/08/12 05:17:52;;;;;;;;;;;28.20;77.70;;;;;;5046680;28;19936;-61
2022/08/12 05:20:20;;;;;;;;;;;28.20;77.70;;;;;;5040994;28;19935;-58
2022/08/12 05:22:49;;;;;;;;;;;28.20;78.40;;;;;;5031615;28;19929;-58
2022/08/12 05:25:23;;;;;;;;;;;28.20;77.70;;;;;;5022906;28;20316;-60
2022/08/12 05:27:52;;;;;;;;;;;28.20;77.80;;;;;;5019848;28;19925;-59
2022/08/12 05:30:24;;;;;;;;;;;28.20;77.80;;;;;;5037598;28;19944;-59
2022/08/12 05:32:54;;;;;;;;;;;28.20;77.70;;;;;;5036918;28;19936;-60
2022/08/12 05:35:21;;;;;;;;;;;28.20;77.70;;;;;;5030830;28;19929;-58
2022/08/12 05:38:54;;;;;;;;;;;28.20;77.70;;;;;;5035240;28;19925;-60
2022/08/12 05:40:40;;;;;;;;;;;28.20;77.70;;;;;;5013233;28;19936;-59
2022/08/12 05:43:08;;;;;;;;;;;28.30;77.70;;;;;;5037195;28;20722;-57
2022/08/12 05:45:35;;;;;;;;;;;28.30;77.70;;;;;;5020977;28;19925;-63
2022/08/12 05:48:08;;;;;;;;;;;28.20;77.70;;;;;;5040124;28;19925;-60
2022/08/12 05:50:36;;;;;;;;;;;28.30;77.80;;;;;;5039562;28;19933;-58
2022/08/12 05:53:04;;;;;;;;;;;28.20;77.70;;;;;;5029420;28;19929;-57
2022/08/12 05:55:31;;;;;;;;;;;28.20;77.70;;;;;;5033458;28;19929;-59
2022/08/12 05:58:00;;;;;;;;;;;28.20;77.80;;;;;;5035498;28;19936;-62
2022/08/12 06:00:30;;;;;;;;;;;28.30;77.90;;;;;;5031380;28;19933;-62
2022/08/12 06:03:00;;;;;;;;;;;28.20;77.90;;;;;;5030212;28;19933;-62
2022/08/12 06:05:29;;;;;;;;;;;28.20;77.90;;;;;;5039848;28;19953;-59
2022/08/12 06:07:56;;;;;;;;;;;28.20;78.50;;;;;;5035011;28;19936;-63
2022/08/12 06:10:29;;;;;;;;;;;28.20;77.90;;;;;;5033617;28;19935;-61
2022/08/12 06:13:01;;;;;;;;;;;28.20;77.90;;;;;;5037629;28;19936;-59
2022/08/12 06:15:28;;;;;;;;;;;28.20;77.90;;;;;;5032945;28;20510;-60
2022/08/12 06:18:04;;;;;;;;;;;28.20;77.90;;;;;;5029075;28;19929;-59
2022/08/12 06:20:42;;;;;;;;;;;28.20;77.90;;;;;;5032147;28;19929;-60
2022/08/12 06:23:10;;;;;;;;;;;28.20;77.90;;;;;;5029608;28;20427;-60
2022/08/12 06:25:38;;;;;;;;;;;28.20;78.00;;;;;;5038803;28;19929;-60
2022/08/12 06:28:16;;;;;;;;;;;28.10;78.20;;;;;;5030233;28;19925;-57
2022/08/12 06:30:44;;;;;;;;;;;28.20;78.00;;;;;;5044478;28;19929;-59
2022/08/12 06:33:33;;;;;;;;;;;28.20;78.00;;;;;;5023004;28;19944;-59
2022/08/12 06:36:22;;;;;;;;;;;28.20;78.00;;;;;;5031955;28;19929;-58
2022/08/12 06:38:49;;;;;;;;;;;28.20;78.00;;;;;;5035181;28;19928;-61
2022/08/12 06:44:07;;;;;;;;;;;28.20;78.00;;;;;;5027965;28;19933;-60
2022/08/12 06:46:38;;;;;;;;;;;28.20;77.90;;;;;;5037487;28;19932;-59
2022/08/12 06:49:05;;;;;;;;;;;28.20;77.90;;;;;;5036400;28;19932;-62
2022/08/12 06:51:33;;;;;;;;;;;28.20;77.90;;;;;;5032177;28;19929;-62
2022/08/12 06:54:00;;;;;;;;;;;28.20;78.00;;;;;;5014415;28;19932;-62
2022/08/12 06:56:28;;;;;;;;;;;28.20;77.90;;;;;;5043075;28;20352;-60
2022/08/12 06:59:15;;;;;;;;;;;28.20;77.90;;;;;;5014424;28;19936;-58
2022/08/12 07:01:42;;;;;;;;;;;28.20;77.90;;;;;;5034195;28;20355;-63
2022/08/12 07:04:17;;;;;;;;;;;28.20;78.00;;;;;;5035595;28;19929;-61
2022/08/12 07:07:08;;;;;;;;;;;28.20;78.00;;;;;;5040050;28;19936;-62
2022/08/12 07:09:36;;;;;;;;;;;28.30;78.10;;;;;;5031937;28;19929;-59
2022/08/12 07:12:26;;;;;;;;;;;28.20;78.10;;;;;;5030983;28;19925;-56
2022/08/12 07:15:02;;;;;;;;;;;28.30;78.20;;;;;;5039231;28;19955;-61
2022/08/12 07:17:35;;;;;;;;;;;28.30;78.20;;;;;;5037379;28;20384;-61
2022/08/12 07:20:05;;;;;;;;;;;28.30;78.10;;;;;;5036867;28;19929;-61
2022/08/12 07:22:32;;;;;;;;;;;28.30;78.10;;;;;;5027855;28;19929;-56
2022/08/12 07:27:45;;;;;;;;;;;28.30;78.10;;;;;;5016398;28;19929;-59
2022/08/12 07:30:13;;;;;;;;;;;28.30;78.10;;;;;;5032070;28;19932;-61
2022/08/12 07:32:40;;;;;;;;;;;28.30;78.10;;;;;;5030912;28;20297;-61
2022/08/12 07:35:07;;;;;;;;;;;28.30;78.10;;;;;;5040053;28;19929;-60
2022/08/12 07:37:39;;;;;;;;;;;28.30;78.10;;;;;;5022098;28;19936;-61
2022/08/12 07:40:10;;;;;;;;;;;28.40;78.20;;;;;;5037300;28;19925;-57
2022/08/12 07:42:38;;;;;;;;;;;28.40;78.20;;;;;;5037382;28;20413;-59
2022/08/12 07:45:08;;;;;;;;;;;28.40;78.20;;;;;;5033755;28;19924;-61
2022/08/12 07:47:36;;;;;;;;;;;28.40;78.20;;;;;;5036212;28;20415;-60
2022/08/12 07:50:08;;;;;;;;;;;28.40;78.20;;;;;;5045308;28;19929;-59
2022/08/12 07:52:37;;;;;;;;;;;28.40;78.20;;;;;;5032660;28;20349;-60
2022/08/12 07:55:04;;;;;;;;;;;28.40;78.20;;;;;;5032643;28;20387;-59
2022/08/12 07:57:32;;;;;;;;;;;28.40;78.20;;;;;;5040283;28;20220;-56
2022/08/12 08:00:03;;;;;;;;;;;28.40;78.20;;;;;;5038674;28;19936;-58
2022/08/12 08:02:34;;;;;;;;;;;28.40;78.20;;;;;;5038694;28;19929;-56
2022/08/12 08:05:02;;;;;;;;;;;28.40;78.20;;;;;;5037917;28;19936;-60
2022/08/12 08:07:30;;;;;;;;;;;28.50;78.30;;;;;;5043946;28;19925;-61
2022/08/12 08:09:58;;;;;;;;;;;28.50;78.30;;;;;;5034145;28;19929;-62
2022/08/12 08:15:13;;;;;;;;;;;28.50;78.40;;;;;;5034538;28;19929;-60
2022/08/12 08:17:53;;;;;;;;;;;28.50;78.40;;;;;;5018154;28;20415;-60
2022/08/12 08:20:23;;;;;;;;;;;28.50;78.30;;;;;;5032553;28;19929;-63
2022/08/12 08:22:50;;;;;;;;;;;28.50;78.40;;;;;;5035839;28;19932;-62
2022/08/12 08:25:19;;;;;;;;;;;28.50;78.40;;;;;;5043572;28;19937;-58
2022/08/12 08:28:05;;;;;;;;;;;28.50;78.40;;;;;;5033615;28;19929;-59
2022/08/12 08:30:32;;;;;;;;;;;28.50;78.40;;;;;;5035247;28;19933;-61
2022/08/12 08:32:59;;;;;;;;;;;28.50;78.40;;;;;;5033888;28;19932;-59
2022/08/12 08:35:27;;;;;;;;;;;28.50;78.40;;;;;;5043325;28;20492;-59
2022/08/12 08:38:15;;;;;;;;;;;28.50;78.40;;;;;;5030619;28;19936;-61
2022/08/12 08:44:05;;;;;;;;;;;28.50;78.40;;;;;;5032496;28;20492;-62
2022/08/12 08:46:36;;;;;;;;;;;28.50;78.40;;;;;;5038624;28;19936;-62
2022/08/12 08:49:04;;;;;;;;;;;28.50;78.40;;;;;;5039369;28;20011;-62
2022/08/12 08:51:32;;;;;;;;;;;28.50;78.40;;;;;;5017004;28;19936;-60
2022/08/12 08:53:59;;;;;;;;;;;28.50;78.40;;;;;;5033886;28;20397;-60
2022/08/12 08:56:29;;;;;;;;;;;28.50;78.40;;;;;;5047429;28;20015;-58
2022/08/12 08:58:56;;;;;;;;;;;28.50;78.40;;;;;;5018787;28;19926;-62
2022/08/12 09:01:24;;;;;;;;;;;28.50;78.50;;;;;;5030667;28;20381;-56
2022/08/12 09:03:51;;;;;;;;;;;28.60;78.50;;;;;;5034015;28;19929;-62
2022/08/12 09:06:40;;;;;;;;;;;28.60;78.50;;;;;;5036227;28;19941;-61
2022/08/12 09:09:19;;;;;;;;;;;28.60;78.50;;;;;;5031092;28;19933;-64
2022/08/12 09:14:42;;;;;;;;;;;28.60;78.50;;;;;;5040691;28;20337;-60
2022/08/12 09:17:19;;;;;;;;;;;28.60;78.60;;;;;;5023227;28;19935;-60
2022/08/12 09:19:47;;;;;;;;;;;28.60;78.60;;;;;;5013568;28;19929;-60
2022/08/12 09:22:23;;;;;;;;;;;28.60;78.60;;;;;;5034974;28;19929;-63
2022/08/12 09:25:10;;;;;;;;;;;28.60;78.60;;;;;;5037578;28;19928;-62
2022/08/12 09:27:57;;;;;;;;;;;28.60;78.60;;;;;;5039069;28;19937;-60
2022/08/12 09:30:32;;;;;;;;;;;28.60;78.60;;;;;;5021315;28;19929;-61
2022/08/12 09:33:08;;;;;;;;;;;28.60;78.70;;;;;;5021699;28;20595;-58
2022/08/12 09:35:56;;;;;;;;;;;28.60;78.60;;;;;;5037954;28;19928;-61
2022/08/12 09:38:32;;;;;;;;;;;28.60;78.60;;;;;;5021245;28;19929;-59
2022/08/12 09:41:00;;;;;;;;;;;28.60;78.60;;;;;;5034181;28;19944;-61
2022/08/12 09:46:54;;;;;;;;;;;28.60;78.60;;;;;;5031447;28;19925;-62
2022/08/12 09:49:23;;;;;;;;;;;28.60;78.60;;;;;;5037012;28;20275;-59
2022/08/12 09:51:53;;;;;;;;;;;28.60;78.50;;;;;;5030689;28;20372;-58
2022/08/12 09:54:26;;;;;;;;;;;28.60;78.50;;;;;;5039686;28;19933;-57
2022/08/12 09:57:08;;;;;;;;;;;28.60;78.50;;;;;;5039530;28;19929;-61
2022/08/12 09:59:56;;;;;;;;;;;28.60;78.60;;;;;;5031753;28;20380;-62
2022/08/12 10:02:59;;;;;;;;;;;28.60;78.50;;;;;;5032143;28;19936;-62
2022/08/12 10:05:35;;;;;;;;;;;28.60;78.60;;;;;;5033543;28;19944;-61
2022/08/12 10:08:26;;;;;;;;;;;28.60;78.60;;;;;;5030500;28;19929;-58
2022/08/12 10:13:47;;;;;;;;;;;28.60;78.50;;;;;;5035142;28;20182;-59
2022/08/12 10:16:17;;;;;;;;;;;28.60;78.50;;;;;;5033919;28;19948;-60
2022/08/12 10:18:53;;;;;;;;;;;28.60;78.50;;;;;;5028877;28;19936;-60
2022/08/12 10:21:25;;;;;;;;;;;28.60;78.60;;;;;;5036669;28;19928;-61
2022/08/12 10:24:07;;;;;;;;;;;28.60;78.60;;;;;;5029962;28;19928;-62
2022/08/12 10:29:40;;;;;;;;;;;28.60;78.60;;;;;;5036734;28;19924;-60
2022/08/12 10:32:28;;;;;;;;;;;28.60;78.60;;;;;;5031800;28;19941;-62
2022/08/12 10:35:13;;;;;;;;;;;28.60;78.60;;;;;;5018806;28;19936;-61
2022/08/12 10:37:40;;;;;;;;;;;28.60;78.70;;;;;;5033581;28;19955;-61
2022/08/12 10:40:29;;;;;;;;;;;28.60;78.60;;;;;;5031281;28;20282;-59
2022/08/12 10:45:47;;;;;;;;;;;28.60;78.60;;;;;;5029714;28;19932;-59
2022/08/12 10:48:19;;;;;;;;;;;28.60;78.60;;;;;;5031299;28;20404;-61
2022/08/12 10:51:03;;;;;;;;;;;28.60;78.60;;;;;;5019130;28;20419;-60
2022/08/12 10:53:54;;;;;;;;;;;28.60;78.60;;;;;;5032699;28;20367;-59
2022/08/12 10:56:30;;;;;;;;;;;28.60;78.70;;;;;;5026025;28;19940;-59
2022/08/12 10:59:04;;;;;;;;;;;28.60;78.70;;;;;;5040368;28;19929;-59
2022/08/12 11:01:37;;;;;;;;;;;28.60;78.60;;;;;;5028542;28;20344;-59
2022/08/12 11:04:25;;;;;;;;;;;28.60;78.60;;;;;;5016282;28;19929;-56
2022/08/12 11:07:12;;;;;;;;;;;28.60;78.60;;;;;;5035550;28;19944;-58
2022/08/12 11:09:59;;;;;;;;;;;28.60;78.60;;;;;;5045071;28;19929;-60
2022/08/12 11:12:29;;;;;;;;;;;28.60;78.60;;;;;;5039729;28;19929;-60
2022/08/12 11:15:19;;;;;;;;;;;28.60;78.60;;;;;;5032579;28;19929;-62
2022/08/12 11:18:07;;;;;;;;;;;28.60;78.60;;;;;;5037839;28;19936;-59
2022/08/12 11:20:38;;;;;;;;;;;28.60;78.60;;;;;;5039798;28;19936;-61
2022/08/12 11:23:05;;;;;;;;;;;28.60;78.60;;;;;;5035066;28;19940;-58
2022/08/12 11:25:52;;;;;;;;;;;28.60;78.60;;;;;;5015202;28;19929;-59
2022/08/12 11:28:25;;;;;;;;;;;28.60;78.60;;;;;;5040969;28;19948;-60
2022/08/12 11:31:03;;;;;;;;;;;28.70;78.70;;;;;;5032567;28;20324;-60
2022/08/12 11:33:31;;;;;;;;;;;28.60;78.60;;;;;;5039251;28;19936;-62
2022/08/12 11:36:18;;;;;;;;;;;28.70;78.60;;;;;;5035196;28;19929;-61
2022/08/12 11:38:49;;;;;;;;;;;28.60;78.60;;;;;;5034767;28;19936;-59
2022/08/12 11:41:18;;;;;;;;;;;28.60;78.60;;;;;;5034655;28;20423;-55
2022/08/12 11:44:01;;;;;;;;;;;28.60;78.60;;;;;;5036687;28;19936;-61
2022/08/12 11:46:49;;;;;;;;;;;28.60;78.60;;;;;;5035626;28;19929;-59
2022/08/12 11:49:23;;;;;;;;;;;28.60;78.60;;;;;;5035959;28;19936;-58
2022/08/12 11:51:59;;;;;;;;;;;28.60;78.60;;;;;;5031742;28;19929;-59
2022/08/12 11:54:26;;;;;;;;;;;28.60;78.60;;;;;;5043334;28;19929;-61
2022/08/12 11:56:59;;;;;;;;;;;28.60;78.60;;;;;;5031597;28;20248;-61
2022/08/12 11:59:30;;;;;;;;;;;28.70;78.70;;;;;;5019907;28;19929;-60
2022/08/12 12:02:17;;;;;;;;;;;28.70;78.60;;;;;;5050174;28;20060;-62
2022/08/12 12:04:49;;;;;;;;;;;28.70;78.60;;;;;;5036747;28;19928;-61
2022/08/12 12:07:21;;;;;;;;;;;28.70;78.60;;;;;;5047972;28;19928;-59
2022/08/12 12:09:48;;;;;;;;;;;28.70;78.50;;;;;;5040546;28;19929;-57
2022/08/12 12:12:22;;;;;;;;;;;28.70;78.50;;;;;;5034633;28;20031;-59
2022/08/12 12:14:51;;;;;;;;;;;28.70;78.60;;;;;;5034834;28;20403;-58
2022/08/12 12:17:24;;;;;;;;;;;28.60;78.40;;;;;;5034030;28;19928;-58
2022/08/12 12:19:52;;;;;;;;;;;28.70;78.60;;;;;;5035008;28;19931;-59
2022/08/12 12:22:20;;;;;;;;;;;28.70;78.60;;;;;;5017664;28;19929;-60
2022/08/12 12:24:57;;;;;;;;;;;28.70;78.60;;;;;;5037052;28;19943;-57
2022/08/12 12:27:24;;;;;;;;;;;28.70;78.60;;;;;;5036930;28;19929;-61
2022/08/12 12:30:12;;;;;;;;;;;28.60;78.50;;;;;;5040892;28;19925;-56
2022/08/12 12:32:56;;;;;;;;;;;28.70;78.60;;;;;;5045672;28;19951;-60
2022/08/12 12:35:23;;;;;;;;;;;28.70;78.50;;;;;;5032803;28;19933;-61
2022/08/12 12:38:10;;;;;;;;;;;28.70;78.50;;;;;;5030926;28;19929;-58
2022/08/12 12:40:40;;;;;;;;;;;28.70;78.60;;;;;;5037015;28;20368;-60
2022/08/12 12:43:07;;;;;;;;;;;28.70;78.50;;;;;;5034007;28;19936;-60
2022/08/12 12:45:35;;;;;;;;;;;28.70;78.60;;;;;;5034229;28;20285;-61
2022/08/12 12:48:03;;;;;;;;;;;28.70;78.50;;;;;;5033893;28;19936;-60
2022/08/12 12:50:34;;;;;;;;;;;28.70;78.50;;;;;;5031838;28;20380;-57
2022/08/12 12:53:20;;;;;;;;;;;28.70;78.50;;;;;;5037732;28;19929;-61
2022/08/12 12:56:14;;;;;;;;;;;28.80;78.50;;;;;;5031885;28;20311;-63
2022/08/12 12:58:42;;;;;;;;;;;28.80;78.50;;;;;;5037151;28;19935;-58
2022/08/12 13:01:11;;;;;;;;;;;28.80;78.40;;;;;;5031128;28;20410;-58
2022/08/12 13:03:55;;;;;;;;;;;28.80;78.40;;;;;;5037792;28;20458;-60
2022/08/12 13:06:29;;;;;;;;;;;28.80;78.40;;;;;;5016452;28;19936;-61
2022/08/12 13:08:58;;;;;;;;;;;28.90;78.40;;;;;;5031794;28;19929;-59
2022/08/12 13:11:32;;;;;;;;;;;28.80;78.30;;;;;;5039680;28;19932;-62
2022/08/12 13:14:12;;;;;;;;;;;28.90;78.40;;;;;;5046450;28;19935;-62
2022/08/12 13:16:55;;;;;;;;;;;28.90;78.40;;;;;;5034853;28;19936;-63
2022/08/12 13:19:25;;;;;;;;;;;28.90;78.40;;;;;;5038173;28;20277;-61
2022/08/12 13:22:19;;;;;;;;;;;28.90;78.40;;;;;;5031038;28;20315;-61
2022/08/12 13:24:53;;;;;;;;;;;28.90;78.40;;;;;;5033417;28;19929;-61
2022/08/12 13:27:28;;;;;;;;;;;29.00;78.50;;;;;;5022082;28;19929;-62
2022/08/12 13:30:08;;;;;;;;;;;29.00;78.60;;;;;;5022596;28;20217;-62
2022/08/12 13:32:42;;;;;;;;;;;29.00;78.60;;;;;;5031732;28;19928;-62
2022/08/12 13:35:28;;;;;;;;;;;29.00;78.60;;;;;;5034090;28;19928;-61
2022/08/12 13:38:15;;;;;;;;;;;29.10;78.70;;;;;;5029474;28;19936;-61
2022/08/12 13:41:02;;;;;;;;;;;29.10;78.70;;;;;;5022198;28;20434;-61
2022/08/12 13:43:29;;;;;;;;;;;29.10;78.60;;;;;;5042893;28;19925;-60
2022/08/12 13:46:08;;;;;;;;;;;29.20;78.60;;;;;;5040440;28;19929;-64
2022/08/12 13:48:39;;;;;;;;;;;29.20;78.60;;;;;;5041335;28;19929;-65
2022/08/12 13:51:14;;;;;;;;;;;29.20;78.60;;;;;;5036124;28;19952;-61
2022/08/12 13:53:50;;;;;;;;;;;29.30;78.50;;;;;;5035383;28;19925;-59
2022/08/12 13:56:27;;;;;;;;;;;29.30;78.50;;;;;;5035327;28;19925;-61
2022/08/12 13:59:02;;;;;;;;;;;29.40;78.40;;;;;;5030260;28;20443;-59
2022/08/12 14:01:30;;;;;;;;;;;29.40;78.40;;;;;;5031344;28;19939;-62
2022/08/12 14:04:03;;;;;;;;;;;29.50;78.40;;;;;;5032696;28;19929;-62
2022/08/12 14:06:30;;;;;;;;;;;29.50;78.40;;;;;;5035984;28;19932;-61
2022/08/12 14:08:58;;;;;;;;;;;29.50;78.30;;;;;;5018961;28;19929;-62
2022/08/12 14:11:42;;;;;;;;;;;29.50;78.30;;;;;;5031210;28;19929;-61
2022/08/12 14:14:26;;;;;;;;;;;29.60;78.30;;;;;;5030728;28;19936;-59
2022/08/12 14:16:57;;;;;;;;;;;29.60;78.20;;;;;;5038639;28;20313;-64
2022/08/12 14:19:24;;;;;;;;;;;29.70;78.20;;;;;;5019552;28;20105;-62
2022/08/12 14:22:03;;;;;;;;;;;29.70;78.10;;;;;;5013483;28;19936;-58
2022/08/12 14:24:36;;;;;;;;;;;29.70;78.10;;;;;;5036388;28;19948;-61
2022/08/12 14:27:10;;;;;;;;;;;29.70;78.10;;;;;;5034073;28;20383;-62
2022/08/12 14:29:41;;;;;;;;;;;29.70;78.10;;;;;;5033192;28;19948;-61
2022/08/12 14:32:33;;;;;;;;;;;29.70;78.20;;;;;;5035559;28;19933;-59
2022/08/12 14:35:00;;;;;;;;;;;29.60;78.30;;;;;;5028319;28;19929;-61
2022/08/12 14:37:27;;;;;;;;;;;29.60;78.30;;;;;;5018212;28;20324;-61
2022/08/12 14:40:15;;;;;;;;;;;29.70;78.30;;;;;;5037625;28;19925;-61
2022/08/12 14:42:48;;;;;;;;;;;29.70;78.20;;;;;;5020207;28;19951;-59
2022/08/12 14:45:17;;;;;;;;;;;29.70;78.20;;;;;;5037301;28;20319;-60
2022/08/12 14:47:52;;;;;;;;;;;29.80;78.30;;;;;;5024110;28;19936;-60
2022/08/12 14:50:24;;;;;;;;;;;29.70;78.20;;;;;;5034545;28;19929;-61
2022/08/12 14:53:13;;;;;;;;;;;29.80;78.10;;;;;;5034018;28;20281;-62
2022/08/12 14:56:00;;;;;;;;;;;29.90;78.00;;;;;;5042472;28;19929;-61
2022/08/12 15:01:50;;;;;;;;;;;30.00;77.70;;;;;;5018876;28;19929;-61
2022/08/12 15:04:23;;;;;;;;;;;30.10;77.60;;;;;;5034756;28;19933;-60
2022/08/12 15:06:53;;;;;;;;;;;30.10;77.60;;;;;;5034708;28;20320;-59
2022/08/12 15:09:21;;;;;;;;;;;30.20;77.50;;;;;;5036363;28;20345;-58
2022/08/12 15:11:56;;;;;;;;;;;30.20;77.40;;;;;;5037999;28;19944;-63
2022/08/12 15:14:30;;;;;;;;;;;30.10;77.50;;;;;;5038761;28;19939;-60
2022/08/12 15:16:58;;;;;;;;;;;30.00;77.60;;;;;;5028903;28;19933;-60
2022/08/12 15:19:28;;;;;;;;;;;29.90;77.70;;;;;;5039901;28;19933;-60
2022/08/12 15:22:15;;;;;;;;;;;29.90;77.90;;;;;;5030343;28;19936;-61
2022/08/12 15:25:04;;;;;;;;;;;29.80;78.00;;;;;;5031218;28;19932;-61
2022/08/12 15:27:42;;;;;;;;;;;29.80;78.00;;;;;;5040294;28;19936;-62
2022/08/12 15:30:29;;;;;;;;;;;29.90;77.90;;;;;;5038329;28;19925;-61
2022/08/12 15:32:56;;;;;;;;;;;30.00;77.60;;;;;;5032850;28;19925;-64
2022/08/12 15:35:26;;;;;;;;;;;30.10;77.50;;;;;;5028577;28;19925;-60
2022/08/12 15:38:05;;;;;;;;;;;30.10;77.40;;;;;;5038484;28;19929;-63
2022/08/12 15:40:39;;;;;;;;;;;30.20;77.30;;;;;;5029828;28;20414;-60
2022/08/12 15:43:18;;;;;;;;;;;30.10;77.30;;;;;;5036056;28;19925;-61
2022/08/12 15:46:05;;;;;;;;;;;30.10;77.40;;;;;;5029950;28;19929;-59
2022/08/12 15:48:32;;;;;;;;;;;30.10;77.40;;;;;;5029955;28;20777;-62
2022/08/12 15:51:01;;;;;;;;;;;30.00;77.40;;;;;;5037158;28;19925;-61
2022/08/12 15:56:22;;;;;;;;;;;29.80;77.60;;;;;;5036896;28;19929;-62
2022/08/12 15:58:57;;;;;;;;;;;29.80;77.80;;;;;;5039709;28;20312;-63
2022/08/12 16:01:28;;;;;;;;;;;29.70;77.90;;;;;;5040749;28;19928;-61
2022/08/12 16:04:02;;;;;;;;;;;29.70;78.00;;;;;;5030876;28;19929;-61
2022/08/12 16:06:32;;;;;;;;;;;29.70;78.00;;;;;;5039576;28;19939;-61
2022/08/12 16:09:23;;;;;;;;;;;29.60;78.00;;;;;;5033137;28;19952;-61
2022/08/12 16:12:10;;;;;;;;;;;29.60;78.00;;;;;;5036200;28;20320;-61
2022/08/12 16:14:38;;;;;;;;;;;29.60;78.00;;;;;;5042418;28;19936;-63
2022/08/12 16:17:06;;;;;;;;;;;29.60;78.00;;;;;;5014741;28;19929;-62
2022/08/12 16:19:41;;;;;;;;;;;29.50;78.00;;;;;;5034971;28;19948;-61
2022/08/12 16:22:28;;;;;;;;;;;29.60;78.10;;;;;;5040505;28;19933;-60
2022/08/12 16:24:55;;;;;;;;;;;29.50;78.00;;;;;;5038658;28;19936;-56
2022/08/12 16:27:24;;;;;;;;;;;29.50;78.00;;;;;;5033662;28;19956;-61
2022/08/12 16:29:56;;;;;;;;;;;29.50;78.00;;;;;;5036194;28;19940;-61
2022/08/12 16:32:26;;;;;;;;;;;29.50;78.00;;;;;;5034213;28;19933;-61
2022/08/12 16:34:58;;;;;;;;;;;29.50;78.00;;;;;;5039299;28;19936;-62
2022/08/12 16:37:32;;;;;;;;;;;29.50;78.00;;;;;;5042800;28;19932;-60
2022/08/12 16:40:19;;;;;;;;;;;29.50;78.00;;;;;;5045815;28;19925;-59
2022/08/12 16:42:46;;;;;;;;;;;29.50;78.00;;;;;;5040556;28;19936;-60
2022/08/12 16:45:30;;;;;;;;;;;29.50;78.00;;;;;;5047675;28;20478;-61
2022/08/12 16:48:22;;;;;;;;;;;29.40;78.00;;;;;;5035702;28;19936;-61
2022/08/12 16:51:06;;;;;;;;;;;29.50;78.70;;;;;;5043174;28;19940;-61
2022/08/12 16:53:39;;;;;;;;;;;29.50;78.10;;;;;;5041621;28;19936;-61
2022/08/12 16:56:14;;;;;;;;;;;29.40;78.00;;;;;;5040088;28;19933;-58